Flight Track Log - Related Links

Times and Time Zones

All times are in EDT time to prevent confusion due to time zone crossing. See the UAL1519 flight status page for this flight to view local times or setup timezone preferences in your user account.

Time Position Orientation Groundspeed Altitude Reporting Facility
EDT Latitude Longitude Course Direction KTS MPH feet Rate Location/Type
Mon 11:51:37 AM 40.6692 -74.1814 206° Southwest 164 189 1,000  Level FlightAware ADS-B
Mon 11:51:40 AM 40.6668 -74.1818 187° South 182 209 1,100 2,250 Climbing FlightAware ADS-B
Mon 11:51:45 AM 40.6624 -74.1817 179° South 189 217 1,300 2,842 Climbing FlightAware ADS-B
Mon 11:51:59 AM 40.6496 -74.1814 179° South 198 228 2,000 2,824 Climbing FlightAware ADS-B
Mon 11:52:02 AM 40.6469 -74.1826 199° South 192 221 2,100 3,000 Climbing FlightAware ADS-B
Mon 11:52:05 AM 40.6442 -74.1843 206° Southwest 189 217 2,300 3,500 Climbing FlightAware ADS-B
Mon 11:52:14 AM 40.6391 -74.1910 225° Southwest 187 215 2,800 3,000 Climbing FlightAware ADS-B
Mon 11:52:17 AM 40.6377 -74.1942 240° Southwest 191 220 2,900 2,182 Climbing FlightAware ADS-B
Mon 11:52:25 AM 40.6354 -74.2027 250° West 195 224 3,200 2,308 Climbing FlightAware ADS-B
Mon 11:52:30 AM 40.6343 -74.2092 257° West 203 234 3,400 2,400 Climbing FlightAware ADS-B
Mon 11:52:40 AM 40.6331 -74.2216 263° West 213 245 3,800 2,160 Climbing FlightAware ADS-B
Mon 11:52:55 AM 40.6312 -74.2411 263° West 229 264 4,300 2,483 Climbing FlightAware ADS-B
Mon 11:53:09 AM 40.6292 -74.2614 263° West 221 254 5,000 3,200 Climbing FlightAware ADS-B
Mon 11:53:10 AM 40.6290 -74.2638 264° West 229 264 5,100 4,125 Climbing FlightAware ADS-B
Mon 11:53:25 AM 40.6267 -74.2851 262° West 240 276 6,100 3,789 Climbing FlightAware ADS-B
Mon 11:53:29 AM 40.6263 -74.2906 265° West 242 278 6,300 3,000 Climbing FlightAware ADS-B
Mon 11:53:37 AM 40.6249 -74.3030 262° West 248 285 6,700 3,000 Climbing FlightAware ADS-B
Mon 11:53:41 AM 40.6242 -74.3081 260° West 248 285 6,900 3,818 Climbing FlightAware ADS-B
Mon 11:53:48 AM 40.6225 -74.3181 257° West 250 288 7,400 4,200 Climbing FlightAware ADS-B
Mon 11:53:51 AM 40.6216 -74.3229 256° West 249 287 7,600 4,615 Climbing FlightAware ADS-B
Mon 11:54:01 AM 40.6182 -74.3376 253° West 243 280 8,400 4,421 Climbing FlightAware ADS-B
Mon 11:54:10 AM 40.6145 -74.3505 249° West 244 281 9,000 3,600 Climbing FlightAware ADS-B
Mon 11:54:26 AM 40.6079 -74.3721 248° West 250 288 9,900 2,609 Climbing FlightAware ADS-B
Mon 11:54:56 AM 40.5942 -74.4170 248° West 276 318 11,000 2,361 Climbing FlightAware ADS-B
Mon 11:55:27 AM 40.5785 -74.4680 248° West 300 345 12,300 2,947 Climbing FlightAware ADS-B
Mon 11:55:53 AM 40.5648 -74.5127 248° West 305 351 13,800 3,263 Climbing FlightAware ADS-B
Mon 11:56:24 AM 40.5485 -74.5663 248° West 313 360 15,400 3,000 Climbing FlightAware ADS-B
Mon 11:56:57 AM 40.5298 -74.6262 248° West 320 368 17,000 3,048 Climbing FlightAware ADS-B
Mon 11:57:27 AM 40.5128 -74.6801 247° West 323 372 18,600 3,064 Climbing FlightAware ADS-B
Mon 11:57:44 AM 40.5035 -74.7095 247° West 326 375 19,400 2,939 Climbing FlightAware ADS-B
Mon 11:58:16 AM 40.4918 -74.7729 256° West 331 381 21,000 2,381 Climbing FlightAware ADS-B
Mon 11:58:47 AM 40.4843 -74.8344 261° West 336 387 21,900 1,672 Climbing FlightAware ADS-B
Mon 11:59:17 AM 40.4774 -74.8945 261° West 328 377 22,700 1,900 Climbing FlightAware ADS-B
Mon 11:59:47 AM 40.4707 -74.9539 262° West 333 383 23,800 2,323 Climbing FlightAware ADS-B
Mon 12:00:19 PM 40.4642 -75.0173 262° West 338 389 25,100 2,095 Climbing FlightAware ADS-B
Mon 12:00:50 PM 40.4582 -75.0806 263° West 347 399 26,000 1,962 Climbing FlightAware ADS-B
Mon 12:01:11 PM 40.4544 -75.1242 263° West 348 400 26,800 2,129 Climbing FlightAware ADS-B
Mon 12:01:21 PM 40.4515 -75.1448 260° West 345 397 27,100 2,100 Climbing FlightAware ADS-B
Mon 12:01:31 PM 40.4458 -75.1664 251° West 343 395 27,500 1,800 Climbing FlightAware ADS-B
Mon 12:01:41 PM 40.4391 -75.1848 244° Southwest 347 399 27,700 900 Climbing FlightAware ADS-B
Mon 12:01:51 PM 40.4311 -75.2021 239° Southwest 351 404 27,800 571 Climbing FlightAware ADS-B
Mon 12:02:02 PM 40.4192 -75.2215 231° Southwest 357 411 27,900 714 Climbing FlightAware ADS-B
Mon 12:02:33 PM 40.3846 -75.2703 227° Southwest 375 432 28,300 1,180 Climbing FlightAware ADS-B
Mon 12:03:03 PM 40.3485 -75.3211 227° Southwest 379 436 29,100 1,932 Climbing FlightAware ADS-B
Mon 12:03:32 PM 40.3143 -75.3704 228° Southwest 376 433 30,200 1,869 Climbing FlightAware ADS-B
Mon 12:04:04 PM 40.2762 -75.4241 227° Southwest 383 441 31,000 1,219 Climbing FlightAware ADS-B
Mon 12:04:36 PM 40.2345 -75.4752 223° Southwest 391 450 31,500 1,161 Climbing FlightAware ADS-B
Mon 12:05:06 PM 40.1940 -75.5236 222° Southwest 394 453 32,200 1,377 Climbing FlightAware ADS-B
Mon 12:05:37 PM 40.1536 -75.5735 223° Southwest 398 458 32,900 1,377 Climbing FlightAware ADS-B
Mon 12:06:07 PM 40.1126 -75.6243 223° Southwest 401 461 33,600 1,475 Climbing FlightAware ADS-B
Mon 12:06:38 PM 40.0704 -75.6761 223° Southwest 403 464 34,400 1,475 Climbing FlightAware ADS-B
Mon 12:07:08 PM 40.0292 -75.7252 222° Southwest 402 463 35,100 1,377 Climbing FlightAware ADS-B
Mon 12:07:39 PM 39.9873 -75.7740 222° Southwest 405 466 35,800 1,180 Climbing FlightAware ADS-B
Mon 12:08:09 PM 39.9444 -75.8225 221° Southwest 409 471 36,300 885 Climbing FlightAware ADS-B
Mon 12:08:40 PM 39.8994 -75.8735 221° Southwest 414 476 36,700 871 Climbing FlightAware ADS-B
Mon 12:09:11 PM 39.8555 -75.9233 221° Southwest 415 478 37,200 984 Climbing FlightAware ADS-B
Mon 12:09:41 PM 39.8112 -75.9746 222° Southwest 418 481 37,700 800 Climbing FlightAware ADS-B
Mon 12:10:11 PM 39.7681 -76.0253 222° Southwest 420 483 38,000 295 Climbing FlightAware ADS-B
Mon 12:10:42 PM 39.7238 -76.0776 222° Southwest 421 484 38,000  Level FlightAware ADS-B
Mon 12:11:12 PM 39.6804 -76.1289 222° Southwest 422 486 38,000  Level FlightAware ADS-B
Mon 12:11:43 PM 39.6366 -76.1804 222° Southwest 421 484 38,000  Level FlightAware ADS-B
Mon 12:12:13 PM 39.5923 -76.2322 222° Southwest 421 484 38,000  Level FlightAware ADS-B
Mon 12:12:44 PM 39.5484 -76.2836 222° Southwest 423 487 38,000  Level FlightAware ADS-B
Mon 12:13:16 PM 39.5015 -76.3382 222° Southwest 424 488 38,000  Level FlightAware ADS-B
Mon 12:13:46 PM 39.4600 -76.3904 224° Southwest 423 487 38,000  Level FlightAware ADS-B
Mon 12:14:19 PM 39.4181 -76.4532 229° Southwest 421 484 38,000  Level FlightAware ADS-B
Mon 12:14:57 PM 39.3709 -76.5274 231° Southwest 422 486 38,000  Level FlightAware ADS-B
Mon 12:15:27 PM 39.3336 -76.5859 231° Southwest 423 487 38,000  Level FlightAware ADS-B
Mon 12:15:58 PM 39.2959 -76.6451 231° Southwest 424 488 38,000  Level FlightAware ADS-B
Mon 12:16:28 PM 39.2572 -76.7052 230° Southwest 423 487 38,000  Level FlightAware ADS-B
Mon 12:17:00 PM 39.2183 -76.7660 230° Southwest 422 486 38,000  Level FlightAware ADS-B
Mon 12:17:32 PM 39.1776 -76.8290 230° Southwest 423 487 38,000  Level FlightAware ADS-B
Mon 12:18:04 PM 39.1376 -76.8906 230° Southwest 421 484 38,000  Level FlightAware ADS-B
Mon 12:18:37 PM 39.0971 -76.9534 230° Southwest 423 487 38,000  Level FlightAware ADS-B
Mon 12:19:00 PM 39.0684 -76.9972 230° Southwest 423 487 38,000  Level FlightAware ADS-B
Mon 12:19:23 PM 39.0365 -77.0394 226° Southwest 425 489 38,000  Level FlightAware ADS-B
Mon 12:19:48 PM 38.9997 -77.0815 222° Southwest 427 491 38,000  Level FlightAware ADS-B
Mon 12:20:21 PM 38.9508 -77.1352 221° Southwest 429 494 38,000  Level FlightAware ADS-B
Mon 12:20:53 PM 38.9019 -77.1882 220° Southwest 429 494 38,000  Level FlightAware ADS-B
Mon 12:21:23 PM 38.8559 -77.2382 220° Southwest 429 494 38,000  Level FlightAware ADS-B
Mon 12:21:57 PM 38.8056 -77.2928 220° Southwest 431 496 38,000  Level FlightAware ADS-B
Mon 12:22:29 PM 38.7560 -77.3469 220° Southwest 431 496 38,000  Level FlightAware ADS-B
Mon 12:23:01 PM 38.7086 -77.3984 220° Southwest 428 493 38,000  Level FlightAware ADS-B
Mon 12:23:53 PM 38.6303 -77.4828 220° Southwest 426 490 38,000  Level FlightAware ADS-B
Mon 12:24:47 PM 38.5491 -77.5707 220° Southwest 428 493 38,000  Level FlightAware ADS-B
Mon 12:25:20 PM 38.4992 -77.6245 220° Southwest 429 494 38,000  Level FlightAware ADS-B
Mon 12:26:12 PM 38.4209 -77.7086 220° Southwest 428 493 38,000  Level FlightAware ADS-B
Mon 12:26:57 PM 38.3526 -77.7815 220° Southwest 426 490 38,000  Level FlightAware ADS-B
Mon 12:27:32 PM 38.3020 -77.8360 220° Southwest 426 490 38,000  Level FlightAware ADS-B
Mon 12:28:17 PM 38.2350 -77.9080 220° Southwest 425 489 38,000  Level FlightAware ADS-B
Mon 12:28:57 PM 38.1730 -77.9730 220° Southwest 424 488 38,000  Level FlightAware ADS-B
Mon 12:29:37 PM 38.1150 -78.0350 220° Southwest 425 489 38,000  Level FlightAware ADS-B
Mon 12:30:22 PM 38.0460 -78.1070 219° Southwest 425 489 38,000  Level FlightAware ADS-B
Mon 12:31:02 PM 37.9870 -78.1700 220° Southwest 427 491 38,000  Level FlightAware ADS-B
Mon 12:31:42 PM 37.9220 -78.2300 216° Southwest 425 489 38,000  Level FlightAware ADS-B
Mon 12:32:27 PM 37.8500 -78.2970 216° Southwest 425 489 38,000  Level FlightAware ADS-B
Mon 12:33:07 PM 37.7870 -78.3570 217° Southwest 426 490 38,000  Level FlightAware ADS-B
Mon 12:33:52 PM 37.7180 -78.4230 217° Southwest 426 490 38,000  Level FlightAware ADS-B
Mon 12:34:32 PM 37.6550 -78.4830 217° Southwest 425 489 38,000  Level FlightAware ADS-B
Mon 12:35:17 PM 37.5850 -78.5490 217° Southwest 426 490 38,000  Level FlightAware ADS-B
Mon 12:35:57 PM 37.5230 -78.6070 217° Southwest 425 489 38,000  Level FlightAware ADS-B
Mon 12:36:37 PM 37.4600 -78.6660 217° Southwest 425 489 38,000  Level FlightAware ADS-B
Mon 12:37:17 PM 37.4000 -78.7230 217° Southwest 424 488 38,000  Level FlightAware ADS-B
Mon 12:37:57 PM 37.3430 -78.7760 216° Southwest 424 488 38,000  Level FlightAware ADS-B
Mon 12:38:47 PM 37.2550 -78.8580 217° Southwest 425 489 38,000  Level FlightAware ADS-B
Mon 12:40:17 PM 37.1210 -78.9820 216° Southwest 426 490 38,000  Level FlightAware ADS-B
Mon 12:41:07 PM 37.0530 -79.0440 216° Southwest 426 490 38,000  Level FlightAware ADS-B
Mon 12:41:47 PM 36.9990 -79.0930 216° Southwest 426 490 38,000  Level FlightAware ADS-B
Mon 12:42:37 PM 36.8970 -79.1900 217° Southwest 423 487 38,000  Level FlightAware ADS-B
Mon 12:43:22 PM 36.8310 -79.2520 217° Southwest 423 487 38,000  Level FlightAware ADS-B
Mon 12:44:22 PM 36.7340 -79.3400 216° Southwest 421 484 38,000  Level FlightAware ADS-B
Mon 12:45:02 PM 36.6810 -79.3880 216° Southwest 421 484 38,000  Level FlightAware ADS-B
Mon 12:45:52 PM 36.5880 -79.4740 217° Southwest 424 488 38,000  Level FlightAware ADS-B
Mon 12:46:42 PM 36.5200 -79.5350 216° Southwest 424 488 38,000  Level FlightAware ADS-B
Mon 12:47:22 PM 36.4660 -79.5840 216° Southwest 424 488 38,000  Level FlightAware ADS-B
Mon 12:48:02 PM 36.4120 -79.6330 216° Southwest 424 488 38,000  Level FlightAware ADS-B
Mon 12:48:42 PM 36.3580 -79.6810 216° Southwest 424 488 38,000  Level FlightAware ADS-B
Mon 12:49:22 PM 36.3040 -79.7300 216° Southwest 424 488 38,000  Level FlightAware ADS-B
Mon 12:50:12 PM 36.2370 -79.7910 216° Southwest 424 488 38,000  Level FlightAware ADS-B
Mon 12:50:52 PM 36.1830 -79.8390 216° Southwest 424 488 38,000  Level FlightAware ADS-B
Mon 12:51:32 PM 36.1290 -79.8880 216° Southwest 424 488 38,000  Level FlightAware ADS-B
Mon 12:52:12 PM 36.0750 -79.9360 216° Southwest 424 488 38,000  Level FlightAware ADS-B
Mon 12:53:02 PM 36.0080 -79.9970 216° Southwest 424 488 38,000  Level FlightAware ADS-B
Mon 12:53:42 PM 35.9540 -80.0460 216° Southwest 424 488 38,000  Level FlightAware ADS-B
Mon 12:54:22 PM 35.9000 -80.0940 216° Southwest 424 488 38,000  Level FlightAware ADS-B
Mon 12:55:02 PM 35.8460 -80.1420 216° Southwest 424 488 38,000  Level FlightAware ADS-B
Mon 12:56:27 PM 35.5050 -80.2450 194° South 38,000  Level FlightAware ADS-B
Mon 12:57:42 PM 35.3630 -80.3160 202° Southwest 438 504 38,000  Level FlightAware ADS-B
Mon 12:58:37 PM 35.2560 -80.3700 202° Southwest 437 503 38,000  Level FlightAware ADS-B
Mon 12:59:22 PM 35.1740 -80.4110 202° Southwest 437 503 38,000  Level FlightAware ADS-B
Mon 01:00:02 PM 35.1010 -80.4470 202° Southwest 437 503 38,000  Level FlightAware ADS-B
Mon 01:00:42 PM 35.0240 -80.4860 203° Southwest 437 503 38,000  Level FlightAware ADS-B
Mon 01:01:32 PM 34.9360 -80.5290 202° Southwest 437 503 38,000  Level FlightAware ADS-B
Mon 01:02:22 PM 34.8360 -80.5790 202° Southwest 440 506 38,000  Level FlightAware ADS-B
Mon 01:03:02 PM 34.7600 -80.6160 202° Southwest 441 507 38,000  Level FlightAware ADS-B
Mon 01:03:42 PM 34.6850 -80.6530 202° Southwest 440 506 38,000  Level FlightAware ADS-B
Mon 01:04:27 PM 34.6030 -80.6930 202° Southwest 441 507 38,000  Level FlightAware ADS-B
Mon 01:05:07 PM 34.5220 -80.7330 202° Southwest 441 507 38,000  Level FlightAware ADS-B
Mon 01:05:47 PM 34.4500 -80.7680 202° Southwest 440 506 38,000  Level FlightAware ADS-B
Mon 01:06:27 PM 34.3750 -80.8050 202° Southwest 438 504 38,000  Level FlightAware ADS-B
Mon 01:07:12 PM 34.2920 -80.8450 202° Southwest 436 502 38,000  Level FlightAware ADS-B
Mon 01:07:52 PM 34.2130 -80.8840 202° Southwest 439 505 38,000  Level FlightAware ADS-B
Mon 01:08:37 PM 34.1200 -80.9280 201° Southwest 442 509 38,000  Level FlightAware ADS-B
Mon 01:09:22 PM 34.0340 -80.9700 202° Southwest 444 511 38,000  Level FlightAware ADS-B
Mon 01:10:02 PM 33.9600 -81.0060 202° Southwest 445 512 38,000  Level FlightAware ADS-B
Mon 01:10:42 PM 33.8810 -81.0430 201° Southwest 449 517 38,000  Level FlightAware ADS-B
Mon 01:11:27 PM 33.7880 -81.0640 191° South 468 539 38,000  Level FlightAware ADS-B
Mon 01:12:07 PM 33.7020 -81.0710 184° South 472 543 38,000  Level FlightAware ADS-B
Mon 01:12:52 PM 33.6020 -81.0790 184° South 472 543 38,000  Level FlightAware ADS-B
Mon 01:13:32 PM 33.5160 -81.0860 184° South 471 542 38,000  Level FlightAware ADS-B
Mon 01:14:12 PM 33.4360 -81.0930 184° South 473 544 38,000  Level FlightAware ADS-B
Mon 01:14:57 PM 33.3300 -81.0980 182° South 478 550 38,000  Level FlightAware ADS-B
Mon 01:15:37 PM 33.2440 -81.0990 181° South 480 552 38,000  Level FlightAware ADS-B
Mon 01:16:17 PM 33.1540 -81.0990 180° South 482 555 38,000  Level FlightAware ADS-B
Mon 01:17:02 PM 33.0540 -81.0990 180° South 482 555 38,000  Level FlightAware ADS-B
Mon 01:17:37 PM 32.9800 -81.0990 180° South 481 554 38,000  Level FlightAware ADS-B
Mon 01:18:37 PM 32.8430 -81.0990 180° South 481 554 38,000  Level FlightAware ADS-B
Mon 01:19:22 PM 32.7400 -81.0990 180° South 481 554 38,000  Level FlightAware ADS-B
Mon 01:20:02 PM 32.6540 -81.0990 180° South 478 550 38,000  Level FlightAware ADS-B
Mon 01:20:47 PM 32.5550 -81.0990 180° South 475 547 38,000  Level FlightAware ADS-B
Mon 01:21:27 PM 32.4800 -81.1000 181° South 473 544 38,000  Level FlightAware ADS-B
Mon 01:22:22 PM 32.3630 -81.1000 180° South 473 544 38,000  Level FlightAware ADS-B
Mon 01:23:02 PM 32.2680 -81.1000 180° South 468 539 38,000  Level FlightAware ADS-B
Mon 01:23:42 PM 32.1780 -81.1000 180° South 465 535 38,000  Level FlightAware ADS-B
Mon 01:24:32 PM 32.0800 -81.1000 180° South 463 533 38,000  Level FlightAware ADS-B
Mon 01:25:12 PM 31.9940 -81.1000 180° South 461 531 38,000  Level FlightAware ADS-B
Mon 01:25:52 PM 31.9100 -81.1010 181° South 459 528 38,000  Level FlightAware ADS-B
Mon 01:26:32 PM 31.8180 -81.1010 180° South 457 526 38,000  Level FlightAware ADS-B
Mon 01:27:12 PM 31.7390 -81.1010 180° South 453 521 38,000  Level FlightAware ADS-B
Mon 01:28:12 PM 31.6170 -81.1010 180° South 449 517 38,000  Level FlightAware ADS-B
Mon 01:28:52 PM 31.5470 -81.1010 180° South 449 517 38,000  Level FlightAware ADS-B
Mon 01:29:32 PM 31.4760 -81.1010 180° South 449 517 38,000  Level FlightAware ADS-B
Mon 01:30:17 PM 31.3600 -81.1010 180° South 440 506 38,000  Level FlightAware ADS-B
Mon 01:31:02 PM 31.2610 -81.1010 180° South 439 505 38,000  Level FlightAware ADS-B
Mon 01:31:37 PM 31.1990 -81.1010 180° South 439 505 38,000  Level FlightAware ADS-B
Mon 01:32:27 PM 31.1120 -81.1010 180° South 439 505 38,000  Level FlightAware ADS-B
Mon 01:33:17 PM 31.1960 -81.1010 360° North 442 509 38,000  Level FlightAware ADS-B
Mon 01:34:07 PM 31.1100 -81.1010 180° South 442 509 38,000  Level FlightAware ADS-B
Mon 01:34:47 PM 31.0400 -81.1010 180° South 442 509 38,000  Level FlightAware ADS-B
Mon 01:35:27 PM 30.9700 -81.1010 180° South 442 509 38,000 -1,920 Level FlightAware ADS-B
Mon 01:36:02 PM 30.6570 -81.1020 180° South 447 514 35,600 -2,284 Descending FlightAware ADS-B
Mon 01:38:02 PM 30.6550 -81.1020 180° South 461 531 32,100 -1,688 Descending FlightAware ADS-B
Mon 01:38:42 PM 30.3100 -81.1030 180° South 453 521 31,100 -1,200 Descending FlightAware ADS-B
Mon 01:39:22 PM 30.2210 -81.1030 180° South 447 514 30,500 -758 Descending FlightAware ADS-B
Mon 01:40:17 PM 30.1170 -81.1030 180° South 439 505 29,900 -821 Descending FlightAware ADS-B
Mon 01:40:57 PM 30.1170 -81.1030 180° South 439 505 29,200 -494 Descending FlightAware ADS-B
Mon 01:41:42 PM 30.0360 -81.1030 180° South 439 505 29,200 -505 Level FlightAware ADS-B
Mon 01:42:32 PM 30.0530 -81.1030 360° North 439 505 28,400 -533 Descending FlightAware ADS-B
Mon 01:43:12 PM 29.9840 -81.1030 180° South 439 505 28,400  Level FlightAware ADS-B
Mon 01:43:52 PM 29.9150 -81.1030 180° South 439 505 28,400  Level FlightAware ADS-B
Mon 01:44:32 PM 29.8460 -81.1030 180° South 439 505 28,400  Level FlightAware ADS-B
Mon 01:45:12 PM 29.7770 -81.1030 180° South 439 505 28,400  Level FlightAware ADS-B
Mon 01:45:52 PM 29.7080 -81.1030 180° South 439 505 28,400 -3,553 Level FlightAware ADS-B
Mon 01:48:57 PM 29.1250 -81.1070 180° South 14,600 -4,214 Descending FlightAware ADS-B
Mon 01:49:27 PM 29.0680 -81.0960 170° South 376 433 13,300 -1,553 Descending FlightAware ADS-B
Mon 01:50:22 PM 28.9830 -81.0850 174° South 376 433 12,400 -1,412 Descending FlightAware ADS-B
Mon 01:50:52 PM 28.9310 -81.1030 197° South 339 390 11,300 -1,457 Descending FlightAware ADS-B
Mon 01:51:32 PM 28.8600 -81.1140 188° South 343 395 10,700 -675 Descending FlightAware ADS-B
Mon 01:52:12 PM 28.7990 -81.1230 187° South 343 395 10,400 -424 Descending FlightAware ADS-B
Mon 01:52:57 PM 28.7280 -81.1330 187° South 312 359 10,100 -320 Descending FlightAware ADS-B
Mon 01:53:27 PM 28.6850 -81.1390 187° South 294 338 10,000 -545 Descending FlightAware ADS-B
Mon 01:53:52 PM 28.6500 -81.1440 187° South 279 321 9,600 -1,200 Descending FlightAware ADS-B
Mon 01:54:22 PM 28.6110 -81.1490 186° South 275 316 8,900 -1,067 Descending FlightAware ADS-B
Mon 01:54:37 PM 28.5920 -81.1520 188° South 274 315 8,800 -150 Descending FlightAware ADS-B
Mon 01:55:02 PM 28.5620 -81.1560 187° South 241 277 8,800  Level FlightAware ADS-B
Mon 01:55:32 PM 28.5290 -81.1610 188° South 209 241 8,800 -400 Level FlightAware ADS-B
Mon 01:56:02 PM 28.5010 -81.1650 187° South 208 239 8,400 -982 Descending FlightAware ADS-B
Mon 01:56:27 PM 28.4770 -81.1690 188° South 208 239 7,900 -1,309 Descending FlightAware ADS-B
Mon 01:56:57 PM 28.4480 -81.1730 187° South 199 229 7,200 -1,467 Descending FlightAware ADS-B
Mon 01:57:12 PM 28.4330 -81.1750 187° South 198 228 6,800 -1,950 Descending FlightAware ADS-B
Mon 01:57:37 PM 28.4100 -81.1800 191° South 198 228 5,900 -2,100 Descending FlightAware ADS-B
Mon 01:57:52 PM 28.3960 -81.1840 194° South 199 229 5,400 -2,000 Descending FlightAware ADS-B
Mon 01:58:07 PM 28.3830 -81.1870 191° South 201 231 4,900 -1,950 Descending FlightAware ADS-B
Mon 01:58:32 PM 28.3590 -81.1940 194° South 203 234 4,100 -1,636 Descending FlightAware ADS-B
Mon 01:59:02 PM 28.3300 -81.2020 194° South 200 230 3,400 -1,500 Descending FlightAware ADS-B
Mon 01:59:32 PM 28.3030 -81.2120 198° South 205 236 2,600 -1,309 Descending FlightAware ADS-B
Mon 01:59:57 PM 28.2800 -81.2200 197° South 205 236 2,200 -960 Descending FlightAware ADS-B
Mon 02:00:22 PM 28.2590 -81.2310 205° Southwest 194 223 1,800 -600 Descending FlightAware ADS-B
Mon 02:00:37 PM 28.2530 -81.2450 244° Southwest 197 227 1,800  Level FlightAware ADS-B
Mon 02:00:57 PM 28.2570 -81.2650 283° West 185 213 1,800  Level FlightAware ADS-B
Mon 02:01:22 PM 28.2650 -81.2860 293° West 168 193 1,800  Level FlightAware ADS-B
Mon 02:01:52 PM 28.2790 -81.3080 306° West 165 190 1,800  Level FlightAware ADS-B
Mon 02:02:17 PM 28.2950 -81.3200 327° Northwest 164 189 1,800  Level FlightAware ADS-B
Mon 02:02:32 PM 28.3060 -81.3240 342° North 167 192 1,800 -533 Level FlightAware ADS-B
Mon 02:03:02 PM 28.3300 -81.3240 360° North 163 188 1,400 -840 Descending FlightAware ADS-B
Mon 02:03:22 PM 28.3440 -81.3240 360° North 149 171 1,100 -873 Descending FlightAware ADS-B
Mon 02:03:57 PM 28.3670 -81.3250 358° North 130 150 600 -840 Descending FlightAware ADS-B
Mon 02:04:12 PM 28.3760 -81.3250 360° North 128 147 400 -686 Descending FlightAware ADS-B
Mon 02:04:32 PM 28.3870 -81.3250 360° North 113 130 200 -600 Descending FlightAware ADS-B
Mon 02:05:07 PM 28.4070 -81.3260 357° North 117 135 -343 Descending FlightAware ADS-B

Login

Don't have an account? Register now (free) for customized features, flight alerts, and more!